Wetterdaten: Woche 03.02.20 - 09.02.20 (KW6)
Datum Zeit Temp. Aussen Temp. o. S. Temp +5cm Feuchte Auss Luftdruck Regen Sonnenschein Regendauer Solar Windben Empfang
03.02.2020 00:00 10,9 C 10,0 C 9,4 C 88 % 1010,0 hPa 0,0 l/m 0,00 h 0,00 h 0 W/m 20,1 km/h (4 Bft) 95,92 %
03.02.2020 01:00 10,8 C 10,0 C 9,3 C 86 % 1010,3 hPa 0,0 l/m 0,00 h 0,00 h 0 W/m 23,3 km/h (4 Bft) 99,72 %
03.02.2020 02:00 10,6 C 9,7 C 9,0 C 89 % 1010,5 hPa 0,0 l/m 0,00 h 0,00 h 0 W/m 17,7 km/h (3 Bft) 97,08 %
03.02.2020 03:00 10,4 C 9,5 C 8,9 C 90 % 1010,8 hPa 0,0 l/m 0,00 h 0,00 h 0 W/m 20,9 km/h (4 Bft) 97,86 %
03.02.2020 04:00 10,5 C 9,8 C 9,2 C 90 % 1011,3 hPa 0,0 l/m 0,00 h 0,00 h 0 W/m 19,2 km/h (3 Bft) 98,36 %
03.02.2020 05:00 10,3 C 9,3 C 8,7 C 89 % 1011,5 hPa 0,0 l/m 0,00 h 0,00 h 0 W/m 17,7 km/h (3 Bft) 96,79 %
03.02.2020 06:00 9,8 C 9,1 C 8,4 C 90 % 1011,7 hPa 0,0 l/m 0,00 h 0,00 h 0 W/m 18,1 km/h (3 Bft) 99,22 %
03.02.2020 07:00 10,0 C 9,3 C 8,8 C 90 % 1012,0 hPa 0,0 l/m 0,00 h 0,00 h 0 W/m 18,8 km/h (3 Bft) 95,97 %
03.02.2020 08:00 9,7 C 9,1 C 8,5 C 91 % 1012,3 hPa 0,0 l/m 0,00 h 0,00 h 14 W/m 16,0 km/h (3 Bft) 98,02 %
03.02.2020 09:00 10,1 C 9,4 C 8,6 C 91 % 1012,7 hPa 0,0 l/m 0,00 h 0,50 h 44 W/m 19,4 km/h (3 Bft) 99,29 %
03.02.2020 10:00 10,6 C 11,6 C 9,6 C 88 % 1013,5 hPa 0,0 l/m 0,57 h 0,40 h 181 W/m 21,2 km/h (4 Bft) 96,16 %
03.02.2020 11:00 11,1 C 11,8 C 10,1 C 85 % 1014,0 hPa 0,0 l/m 0,57 h 0,23 h 193 W/m 21,2 km/h (4 Bft) 97,22 %
03.02.2020 12:00 10,8 C 10,5 C 10,1 C 87 % 1014,0 hPa 0,0 l/m 0,00 h 0,03 h 98 W/m 18,7 km/h (3 Bft) 97,29 %
03.02.2020 13:00 11,1 C 11,0 C 10,4 C 84 % 1013,9 hPa 0,0 l/m 0,00 h 0,00 h 101 W/m 17,8 km/h (3 Bft) 98,20 %
03.02.2020 14:00 10,5 C 9,1 C 8,6 C 86 % 1013,8 hPa 0,2 l/m 0,00 h 0,43 h 60 W/m 14,6 km/h (3 Bft) 97,27 %
03.02.2020 15:00 10,0 C 9,2 C 8,6 C 90 % 1013,5 hPa 0,0 l/m 0,00 h 0,00 h 58 W/m 12,1 km/h (2 Bft) 97,58 %
03.02.2020 16:00 10,1 C 9,4 C 8,8 C 88 % 1013,1 hPa 0,0 l/m 0,00 h 0,00 h 35 W/m 9,3 km/h (2 Bft) 97,72 %
03.02.2020 17:00 9,7 C 8,9 C 8,3 C 85 % 1012,3 hPa 0,0 l/m 0,00 h 0,00 h 8 W/m 7,6 km/h (2 Bft) 96,82 %
03.02.2020 18:00 9,4 C 8,8 C 8,1 C 86 % 1011,6 hPa 0,0 l/m 0,00 h 0,00 h 0 W/m 9,0 km/h (2 Bft) 98,71 %
03.02.2020 19:00 9,3 C 7,9 C 7,4 C 87 % 1011,0 hPa 0,2 l/m 0,00 h 0,77 h 0 W/m 10,8 km/h (2 Bft) 97,58 %
03.02.2020 20:00 8,7 C 6,7 C 6,3 C 91 % 1009,5 hPa 1,2 l/m 0,00 h 1,00 h 0 W/m 6,1 km/h (2 Bft) 96,10 %
03.02.2020 21:00 7,9 C 6,1 C 6,1 C 94 % 1008,0 hPa 1,0 l/m 0,00 h 1,00 h 0 W/m 2,4 km/h (1 Bft) 97,53 %
03.02.2020 22:00 7,3 C 6,1 C 5,6 C 96 % 1007,2 hPa 1,6 l/m 0,00 h 1,00 h 0 W/m 2,2 km/h (1 Bft) 98,00 %
03.02.2020 23:00 6,3 C 4,9 C 4,7 C 96 % 1006,9 hPa 2,2 l/m 0,00 h 1,00 h 0 W/m 15,6 km/h (3 Bft) 96,58 %
04.02.2020 00:00 5,3 C 4,3 C 3,9 C 97 % 1006,9 hPa 0,8 l/m 0,00 h 1,00 h 0 W/m 8,1 km/h (2 Bft) 97,26 %
04.02.2020 01:00 5,2 C 4,3 C 3,9 C 98 % 1007,1 hPa 0,2 l/m 0,00 h 0,47 h 0 W/m 5,6 km/h (1 Bft) 98,65 %
04.02.2020 02:00 5,2 C 4,3 C 3,9 C 98 % 1007,2 hPa 0,2 l/m 0,00 h 0,20 h 0 W/m 10,8 km/h (2 Bft) 98,15 %
04.02.2020 03:00 4,7 C 3,4 C 3,3 C 98 % 1007,9 hPa 0,0 l/m 0,00 h 0,10 h 0 W/m 11,5 km/h (2 Bft) 96,23 %
04.02.2020 04:00 4,5 C 3,7 C 3,3 C 98 % 1008,9 hPa 0,0 l/m 0,00 h 0,00 h 0 W/m 13,2 km/h (3 Bft) 96,46 %
04.02.2020 05:00 4,5 C 3,7 C 3,3 C 97 % 1009,9 hPa 0,0 l/m 0,00 h 0,00 h 0 W/m 14,1 km/h (3 Bft) 98,14 %
04.02.2020 06:00 4,3 C 3,3 C 2,8 C 95 % 1010,7 hPa 0,0 l/m 0,00 h 0,00 h 0 W/m 17,2 km/h (3 Bft) 98,43 %
04.02.2020 07:00 4,2 C 3,6 C 2,8 C 94 % 1011,3 hPa 0,0 l/m 0,00 h 0,03 h 0 W/m 18,6 km/h (3 Bft) 96,16 %
04.02.2020 08:00 4,1 C 3,6 C 2,7 C 92 % 1011,8 hPa 0,0 l/m 0,00 h 0,00 h 20 W/m 15,4 km/h (3 Bft) 96,24 %
04.02.2020 09:00 4,5 C 3,9 C 2,9 C 92 % 1012,4 hPa 0,0 l/m 0,03 h 0,60 h 56 W/m 21,9 km/h (4 Bft) 99,71 %
04.02.2020 10:00 3,9 C 3,0 C 2,5 C 94 % 1013,4 hPa 1,8 l/m 0,00 h 0,90 h 43 W/m 13,6 km/h (3 Bft) 96,37 %
04.02.2020 11:00 4,4 C 5,4 C 3,5 C 96 % 1014,0 hPa 0,0 l/m 0,47 h 0,03 h 188 W/m 13,3 km/h (3 Bft) 96,67 %
04.02.2020 12:00 5,7 C 6,8 C 4,5 C 95 % 1014,3 hPa 0,0 l/m 0,27 h 0,00 h 171 W/m 15,5 km/h (3 Bft) 97,51 %
04.02.2020 13:00 6,2 C 6,4 C 4,5 C 90 % 1014,7 hPa 0,2 l/m 0,30 h 0,50 h 145 W/m 18,7 km/h (3 Bft) 97,65 %
04.02.2020 14:00 6,1 C 6,1 C 4,4 C 90 % 1015,2 hPa 0,0 l/m 0,10 h 0,23 h 94 W/m 19,1 km/h (3 Bft) 98,15 %
04.02.2020 15:00 5,6 C 4,8 C 4,0 C 91 % 1015,9 hPa 0,2 l/m 0,00 h 0,67 h 62 W/m 18,7 km/h (3 Bft) 96,44 %
04.02.2020 16:00 5,3 C 4,2 C 3,6 C 94 % 1016,9 hPa 0,4 l/m 0,00 h 0,77 h 17 W/m 13,3 km/h (3 Bft) 95,62 %
04.02.2020 17:00 4,9 C 3,7 C 3,2 C 95 % 1018,2 hPa 0,8 l/m 0,00 h 0,90 h 4 W/m 10,7 km/h (2 Bft) 95,24 %
04.02.2020 18:00 4,0 C 2,0 C 1,8 C 96 % 1019,8 hPa 0,0 l/m 0,00 h 0,07 h 0 W/m 1,2 km/h (1 Bft) 95,73 %
04.02.2020 19:00 2,9 C 0,8 C 0,3 C 95 % 1021,3 hPa 0,0 l/m 0,00 h 0,00 h 0 W/m 0,0 km/h (0 Bft) 98,81 %
04.02.2020 20:00 1,9 C 0,3 C -0,3 C 95 % 1022,5 hPa 0,0 l/m 0,00 h 0,00 h 0 W/m 0,0 km/h (0 Bft) 97,08 %
04.02.2020 21:00 1,6 C 0,5 C -0,2 C 96 % 1024,1 hPa 0,0 l/m 0,00 h 0,03 h 0 W/m 1,5 km/h (1 Bft) 96,65 %
04.02.2020 22:00 1,6 C 0,6 C 0,2 C 97 % 1026,3 hPa 0,0 l/m 0,00 h 0,00 h 0 W/m 1,2 km/h (1 Bft) 96,78 %
04.02.2020 23:00 1,4 C 0,0 C -0,2 C 97 % 1027,2 hPa 0,0 l/m 0,00 h 0,00 h 0 W/m 0,4 km/h (0 Bft) 97,86 %
05.02.2020 00:00 1,2 C 0,0 C -0,0 C 98 % 1028,3 hPa 0,2 l/m 0,00 h 0,00 h 0 W/m 0,3 km/h (0 Bft) 93,66 %
05.02.2020 01:00 1,3 C 0,7 C 0,5 C 98 % 1029,4 hPa 0,0 l/m 0,00 h 0,00 h 0 W/m 1,9 km/h (1 Bft) 99,14 %
05.02.2020 02:00 2,2 C 1,8 C 1,4 C 99 % 1030,3 hPa 0,0 l/m 0,00 h 0,00 h 0 W/m 1,7 km/h (1 Bft) 96,44 %
05.02.2020 03:00 2,9 C 2,2 C 1,8 C 99 % 1031,1 hPa 0,0 l/m 0,00 h 0,00 h 0 W/m 1,0 km/h (0 Bft) 99,00 %
05.02.2020 04:00 3,1 C 2,2 C 1,7 C 99 % 1031,9 hPa 0,0 l/m 0,00 h 0,00 h 0 W/m 0,7 km/h (0 Bft) 97,15 %
05.02.2020 05:00 2,6 C 1,3 C 0,7 C 99 % 1032,7 hPa 0,0 l/m 0,00 h 0,00 h 0 W/m 0,0 km/h (0 Bft) 97,51 %
05.02.2020 06:00 1,8 C 0,3 C -0,6 C 99 % 1033,4 hPa 0,0 l/m 0,00 h 0,00 h 0 W/m 0,0 km/h (0 Bft) 99,57 %
05.02.2020 07:00 1,1 C -0,3 C -1,4 C 99 % 1034,1 hPa 0,0 l/m 0,00 h 0,00 h 0 W/m 0,0 km/h (0 Bft) 94,66 %
05.02.2020 08:00 0,6 C 0,1 C -0,8 C 99 % 1035,1 hPa 0,0 l/m 0,00 h 0,00 h 19 W/m 0,0 km/h (0 Bft) 98,01 %
05.02.2020 09:00 1,6 C 2,4 C 1,5 C 99 % 1035,7 hPa 0,0 l/m 0,00 h 0,00 h 72 W/m 0,0 km/h (0 Bft) 96,86 %
05.02.2020 10:00 3,6 C 5,7 C 3,3 C 100 % 1036,6 hPa 0,0 l/m 0,87 h 0,00 h 182 W/m 0,3 km/h (0 Bft) 96,00 %
05.02.2020 11:00 5,0 C 6,7 C 4,3 C 100 % 1037,3 hPa 0,0 l/m 0,63 h 0,00 h 197 W/m 2,1 km/h (1 Bft) 98,86 %
05.02.2020 12:00 6,1 C 12,1 C 6,0 C 98 % 1037,6 hPa 0,0 l/m 0,73 h 0,00 h 364 W/m 8,4 km/h (2 Bft) 96,32 %
05.02.2020 13:00 8,5 C 14,3 C 6,0 C 80 % 1037,3 hPa 0,0 l/m 1,00 h 0,00 h 399 W/m 6,7 km/h (2 Bft) 98,15 %
05.02.2020 14:00 8,9 C 14,4 C 6,5 C 75 % 1036,8 hPa 0,0 l/m 1,00 h 0,00 h 371 W/m 4,1 km/h (1 Bft) 98,08 %
05.02.2020 15:00 8,3 C 9,6 C 5,6 C 75 % 1036,4 hPa 0,0 l/m 0,90 h 0,00 h 224 W/m 5,9 km/h (2 Bft) 97,44 %
05.02.2020 16:00 6,7 C 5,6 C 4,5 C 79 % 1036,5 hPa 0,0 l/m 0,00 h 0,00 h 34 W/m 5,7 km/h (1 Bft) 96,31 %
05.02.2020 17:00 5,4 C 4,1 C 3,1 C 83 % 1036,5 hPa 0,0 l/m 0,00 h 0,00 h 10 W/m 1,4 km/h (1 Bft) 96,60 %
05.02.2020 18:00 4,9 C 4,5 C 3,6 C 86 % 1036,7 hPa 0,0 l/m 0,00 h 0,00 h 0 W/m 2,7 km/h (1 Bft) 96,82 %
05.02.2020 19:00 5,2 C 4,5 C 3,8 C 86 % 1036,6 hPa 0,0 l/m 0,00 h 0,00 h 0 W/m 1,9 km/h (1 Bft) 96,65 %
05.02.2020 20:00 4,9 C 3,9 C 3,0 C 87 % 1036,3 hPa 0,0 l/m 0,00 h 0,00 h 0 W/m 4,8 km/h (1 Bft) 97,79 %
05.02.2020 21:00 4,4 C 3,5 C 3,0 C 89 % 1036,3 hPa 0,0 l/m 0,00 h 0,00 h 0 W/m 2,1 km/h (1 Bft) 95,73 %
05.02.2020 22:00 4,2 C 3,8 C 3,2 C 89 % 1036,1 hPa 0,0 l/m 0,00 h 0,00 h 0 W/m 6,2 km/h (2 Bft) 98,51 %
05.02.2020 23:00 4,2 C 3,6 C 3,2 C 90 % 1036,0 hPa 0,0 l/m 0,00 h 0,00 h 0 W/m 1,8 km/h (1 Bft) 97,17 %
06.02.2020 00:00 4,3 C 3,9 C 3,3 C 90 % 1035,6 hPa 0,0 l/m 0,00 h 0,00 h 0 W/m 2,3 km/h (1 Bft) 93,28 %
06.02.2020 01:00 4,3 C 3,7 C 3,3 C 90 % 1035,0 hPa 0,0 l/m 0,00 h 0,00 h 0 W/m 1,7 km/h (1 Bft) 98,22 %
06.02.2020 02:00 4,2 C 3,6 C 3,1 C 91 % 1034,6 hPa 0,0 l/m 0,00 h 0,00 h 0 W/m 2,5 km/h (1 Bft) 97,58 %
06.02.2020 03:00 4,0 C 3,1 C 2,6 C 91 % 1034,4 hPa 0,0 l/m 0,00 h 0,00 h 0 W/m 0,5 km/h (0 Bft) 95,65 %
06.02.2020 04:00 3,8 C 3,0 C 2,5 C 92 % 1034,0 hPa 0,0 l/m 0,00 h 0,00 h 0 W/m 1,1 km/h (0 Bft) 99,36 %
06.02.2020 05:00 3,1 C 1,3 C 0,4 C 91 % 1033,6 hPa 0,0 l/m 0,00 h 0,00 h 0 W/m 0,5 km/h (0 Bft) 95,78 %
06.02.2020 06:00 1,9 C 0,6 C -0,6 C 92 % 1033,2 hPa 0,0 l/m 0,00 h 0,00 h 0 W/m 0,1 km/h (0 Bft) 97,98 %
06.02.2020 07:00 1,3 C -0,0 C -1,1 C 93 % 1033,2 hPa 0,0 l/m 0,00 h 0,00 h 0 W/m 0,0 km/h (0 Bft) 96,51 %
06.02.2020 08:00 0,7 C -0,1 C -1,5 C 94 % 1033,2 hPa 0,0 l/m 0,00 h 0,00 h 15 W/m 0,0 km/h (0 Bft) 97,44 %
06.02.2020 09:00 1,1 C 2,1 C 0,8 C 95 % 1033,4 hPa 0,0 l/m 0,00 h 0,00 h 57 W/m 0,1 km/h (0 Bft) 98,01 %
06.02.2020 10:00 3,0 C 3,8 C 3,1 C 96 % 1033,5 hPa 0,0 l/m 0,00 h 0,00 h 73 W/m 1,4 km/h (1 Bft) 98,36 %
06.02.2020 11:00 4,2 C 4,8 C 4,1 C 95 % 1033,4 hPa 0,0 l/m 0,00 h 0,00 h 91 W/m 2,2 km/h (1 Bft) 93,58 %
06.02.2020 12:00 5,2 C 5,7 C 4,9 C 92 % 1033,0 hPa 0,0 l/m 0,00 h 0,00 h 86 W/m 0,0 km/h (0 Bft) 99,57 %
06.02.2020 13:00 6,0 C 6,1 C 5,4 C 89 % 1032,8 hPa 0,0 l/m 0,00 h 0,00 h 70 W/m 0,9 km/h (0 Bft) 96,94 %
06.02.2020 14:00 6,4 C 6,7 C 5,9 C 88 % 1032,4 hPa 0,0 l/m 0,00 h 0,00 h 94 W/m 1,9 km/h (1 Bft) 97,22 %
06.02.2020 15:00 6,9 C 7,2 C 6,4 C 85 % 1032,0 hPa 0,0 l/m 0,03 h 0,00 h 102 W/m 2,8 km/h (1 Bft) 96,45 %
06.02.2020 16:00 6,9 C 6,3 C 5,5 C 85 % 1032,1 hPa 0,0 l/m 0,00 h 0,00 h 38 W/m 1,0 km/h (0 Bft) 97,36 %
06.02.2020 17:00 6,4 C 5,3 C 4,6 C 85 % 1031,9 hPa 0,0 l/m 0,00 h 0,00 h 9 W/m 0,4 km/h (0 Bft) 98,72 %
06.02.2020 18:00 5,9 C 5,3 C 4,4 C 83 % 1031,7 hPa 0,0 l/m 0,00 h 0,00 h 0 W/m 1,0 km/h (0 Bft) 95,60 %
06.02.2020 19:00 5,7 C 5,0 C 4,4 C 84 % 1031,6 hPa 0,0 l/m 0,00 h 0,00 h 0 W/m 2,2 km/h (1 Bft) 98,79 %
06.02.2020 20:00 5,3 C 3,3 C 2,6 C 85 % 1031,6 hPa 0,0 l/m 0,00 h 0,00 h 0 W/m 0,2 km/h (0 Bft) 96,29 %
06.02.2020 21:00 3,4 C 0,8 C 0,0 C 87 % 1031,6 hPa 0,0 l/m 0,00 h 0,00 h 0 W/m 0,0 km/h (0 Bft) 95,17 %
06.02.2020 22:00 1,8 C -0,1 C -0,9 C 89 % 1031,4 hPa 0,0 l/m 0,00 h 0,00 h 0 W/m 0,0 km/h (0 Bft) 97,65 %
06.02.2020 23:00 0,7 C -0,9 C -1,7 C 90 % 1031,3 hPa 0,0 l/m 0,00 h 0,00 h 0 W/m 0,0 km/h (0 Bft) 99,64 %
07.02.2020 00:00 0,4 C 0,2 C -1,0 C 92 % 1031,2 hPa 0,0 l/m 0,00 h 0,00 h 0 W/m 0,8 km/h (0 Bft) 96,60 %
07.02.2020 01:00 1,0 C 0,6 C -0,6 C 95 % 1031,0 hPa 0,0 l/m 0,00 h 0,00 h 0 W/m 3,6 km/h (1 Bft) 97,72 %
07.02.2020 02:00 0,9 C 0,6 C -0,3 C 95 % 1030,7 hPa 0,0 l/m 0,00 h 0,00 h 0 W/m 8,8 km/h (2 Bft) 96,49 %
07.02.2020 03:00 0,8 C 0,1 C -0,6 C 95 % 1030,4 hPa 0,0 l/m 0,00 h 0,00 h 0 W/m 9,7 km/h (2 Bft) 97,67 %
07.02.2020 04:00 0,6 C 0,0 C -0,6 C 95 % 1029,9 hPa 0,0 l/m 0,00 h 0,00 h 0 W/m 7,4 km/h (2 Bft) 96,94 %
07.02.2020 05:00 0,5 C -0,6 C -1,2 C 95 % 1029,6 hPa 0,0 l/m 0,00 h 0,00 h 0 W/m 0,0 km/h (0 Bft) 98,43 %
07.02.2020 06:00 0,2 C -0,6 C -1,5 C 95 % 1029,2 hPa 0,0 l/m 0,00 h 0,00 h 0 W/m 0,4 km/h (0 Bft) 97,64 %
07.02.2020 07:00 0,5 C 0,0 C -0,6 C 96 % 1028,9 hPa 0,0 l/m 0,00 h 0,00 h 0 W/m 8,5 km/h (2 Bft) 97,22 %
07.02.2020 08:00 0,8 C 0,3 C -0,4 C 94 % 1028,7 hPa 0,0 l/m 0,00 h 0,00 h 15 W/m 8,7 km/h (2 Bft) 95,46 %
07.02.2020 09:00 1,5 C 3,0 C 0,7 C 93 % 1028,5 hPa 0,0 l/m 0,50 h 0,00 h 106 W/m 18,7 km/h (3 Bft) 98,95 %
07.02.2020 10:00 3,6 C 6,8 C 2,4 C 86 % 1028,1 hPa 0,2 l/m 1,00 h 0,00 h 274 W/m 28,0 km/h (4 Bft) 95,90 %
07.02.2020 11:00 5,2 C 8,1 C 3,9 C 80 % 1027,7 hPa 0,0 l/m 1,00 h 0,00 h 336 W/m 26,6 km/h (4 Bft) 98,22 %
07.02.2020 12:00 6,8 C 10,0 C 6,6 C 74 % 1026,9 hPa 0,0 l/m 1,00 h 0,00 h 423 W/m 32,4 km/h (5 Bft) 97,08 %
07.02.2020 13:00 7,7 C 10,8 C 7,3 C 71 % 1026,2 hPa 0,0 l/m 1,00 h 0,00 h 414 W/m 31,9 km/h (5 Bft) 95,95 %
07.02.2020 14:00 8,4 C 11,2 C 7,2 C 69 % 1025,4 hPa 0,0 l/m 1,00 h 0,00 h 359 W/m 29,7 km/h (5 Bft) 99,36 %
07.02.2020 15:00 8,5 C 9,7 C 6,8 C 68 % 1024,5 hPa 0,0 l/m 1,00 h 0,00 h 254 W/m 28,6 km/h (4 Bft) 96,37 %
07.02.2020 16:00 7,9 C 7,1 C 6,2 C 68 % 1024,3 hPa 0,0 l/m 0,10 h 0,00 h 37 W/m 22,3 km/h (4 Bft) 98,72 %
07.02.2020 17:00 7,0 C 6,1 C 5,2 C 70 % 1023,8 hPa 0,0 l/m 0,00 h 0,00 h 11 W/m 22,1 km/h (4 Bft) 97,86 %
07.02.2020 18:00 6,2 C 5,3 C 4,4 C 74 % 1023,7 hPa 0,0 l/m 0,00 h 0,00 h 0 W/m 20,9 km/h (4 Bft) 95,01 %
07.02.2020 19:00 5,6 C 4,7 C 3,9 C 76 % 1023,5 hPa 0,0 l/m 0,00 h 0,00 h 0 W/m 25,0 km/h (4 Bft) 99,15 %
07.02.2020 20:00 5,1 C 4,2 C 3,4 C 77 % 1023,3 hPa 0,0 l/m 0,00 h 0,00 h 0 W/m 28,5 km/h (4 Bft) 98,22 %
07.02.2020 21:00 4,4 C 3,5 C 2,8 C 79 % 1023,1 hPa 0,0 l/m 0,00 h 0,00 h 0 W/m 26,7 km/h (4 Bft) 97,37 %
07.02.2020 22:00 3,7 C 2,9 C 2,2 C 81 % 1023,0 hPa 0,0 l/m 0,00 h 0,00 h 0 W/m 26,5 km/h (4 Bft) 96,15 %
07.02.2020 23:00 3,1 C 2,3 C 1,7 C 83 % 1022,9 hPa 0,0 l/m 0,00 h 0,00 h 0 W/m 22,7 km/h (4 Bft) 99,21 %
08.02.2020 00:00 2,8 C 2,2 C 1,7 C 84 % 1022,5 hPa 0,0 l/m 0,00 h 0,00 h 0 W/m 24,5 km/h (4 Bft) 97,48 %
08.02.2020 01:00 2,8 C 2,2 C 1,5 C 85 % 1022,0 hPa 0,0 l/m 0,00 h 0,00 h 0 W/m 30,5 km/h (5 Bft) 97,65 %
08.02.2020 02:00 2,6 C 1,9 C 1,1 C 85 % 1021,7 hPa 0,0 l/m 0,00 h 0,00 h 0 W/m 29,3 km/h (5 Bft) 96,72 %
08.02.2020 03:00 2,3 C 1,7 C 1,1 C 86 % 1021,4 hPa 0,0 l/m 0,00 h 0,00 h 0 W/m 25,1 km/h (4 Bft) 96,94 %
08.02.2020 04:00 2,4 C 1,9 C 1,1 C 86 % 1021,0 hPa 0,0 l/m 0,00 h 0,00 h 0 W/m 25,5 km/h (4 Bft) 99,15 %
08.02.2020 05:00 2,7 C 2,2 C 1,7 C 86 % 1020,7 hPa 0,0 l/m 0,00 h 0,00 h 0 W/m 25,6 km/h (4 Bft) 96,45 %
08.02.2020 06:00 2,9 C 2,5 C 1,9 C 85 % 1020,5 hPa 0,0 l/m 0,00 h 0,00 h 0 W/m 25,7 km/h (4 Bft) 95,30 %
08.02.2020 07:00 3,4 C 3,0 C 2,4 C 85 % 1020,4 hPa 0,0 l/m 0,00 h 0,00 h 0 W/m 28,4 km/h (4 Bft) 98,06 %
08.02.2020 08:00 4,0 C 3,5 C 2,9 C 83 % 1020,5 hPa 0,0 l/m 0,00 h 0,00 h 9 W/m 26,6 km/h (4 Bft) 95,70 %
08.02.2020 09:00 4,3 C 4,0 C 3,3 C 84 % 1020,7 hPa 0,0 l/m 0,00 h 0,00 h 23 W/m 26,7 km/h (4 Bft) 96,44 %
08.02.2020 10:00 4,9 C 4,7 C 4,1 C 84 % 1020,7 hPa 0,0 l/m 0,00 h 0,00 h 70 W/m 26,8 km/h (4 Bft) 98,22 %
08.02.2020 11:00 5,7 C 5,7 C 5,1 C 84 % 1020,8 hPa 0,0 l/m 0,00 h 0,00 h 97 W/m 23,9 km/h (4 Bft) 96,58 %
08.02.2020 12:00 7,5 C 10,3 C 7,8 C 82 % 1020,5 hPa 0,0 l/m 0,87 h 0,00 h 339 W/m 23,5 km/h (4 Bft) 97,36 %
08.02.2020 13:00 9,7 C 12,5 C 9,7 C 79 % 1020,1 hPa 0,0 l/m 0,97 h 0,00 h 348 W/m 22,6 km/h (4 Bft) 97,43 %
08.02.2020 14:00 10,0 C 10,3 C 9,2 C 78 % 1019,8 hPa 0,0 l/m 0,37 h 0,00 h 174 W/m 25,6 km/h (4 Bft) 99,15 %
08.02.2020 15:00 9,3 C 8,8 C 8,4 C 80 % 1019,5 hPa 0,0 l/m 0,00 h 0,00 h 66 W/m 20,8 km/h (4 Bft) 95,87 %
08.02.2020 16:00 9,2 C 8,5 C 8,0 C 82 % 1019,6 hPa 0,0 l/m 0,00 h 0,00 h 31 W/m 17,7 km/h (3 Bft) 97,79 %
08.02.2020 17:00 9,0 C 8,0 C 7,6 C 83 % 1019,9 hPa 0,0 l/m 0,00 h 0,00 h 10 W/m 15,5 km/h (3 Bft) 98,43 %
08.02.2020 18:00 8,7 C 7,8 C 7,2 C 85 % 1020,2 hPa 0,0 l/m 0,00 h 0,00 h 0 W/m 9,5 km/h (2 Bft) 96,21 %
08.02.2020 19:00 8,6 C 7,8 C 7,2 C 86 % 1020,4 hPa 0,0 l/m 0,00 h 0,00 h 0 W/m 14,5 km/h (3 Bft) 96,51 %
08.02.2020 20:00 8,6 C 8,0 C 7,3 C 87 % 1020,5 hPa 0,0 l/m 0,00 h 0,00 h 0 W/m 10,0 km/h (2 Bft) 97,86 %
08.02.2020 21:00 8,8 C 8,2 C 7,4 C 88 % 1020,7 hPa 0,0 l/m 0,00 h 0,00 h 0 W/m 14,2 km/h (3 Bft) 97,79 %
08.02.2020 22:00 9,0 C 8,3 C 7,8 C 86 % 1020,7 hPa 0,0 l/m 0,00 h 0,00 h 0 W/m 15,5 km/h (3 Bft) 97,29 %
08.02.2020 23:00 8,7 C 7,6 C 7,0 C 87 % 1020,2 hPa 0,0 l/m 0,00 h 0,00 h 0 W/m 12,4 km/h (3 Bft) 97,58 %
09.02.2020 00:00 7,7 C 6,4 C 5,6 C 89 % 1019,4 hPa 0,0 l/m 0,00 h 0,00 h 0 W/m 12,3 km/h (3 Bft) 97,71 %
09.02.2020 01:00 6,7 C 5,6 C 4,9 C 91 % 1018,8 hPa 0,0 l/m 0,00 h 0,00 h 0 W/m 12,1 km/h (2 Bft) 96,49 %
09.02.2020 02:00 6,0 C 5,0 C 4,4 C 93 % 1018,2 hPa 0,0 l/m 0,00 h 0,00 h 0 W/m 10,5 km/h (2 Bft) 97,72 %
09.02.2020 03:00 5,8 C 5,3 C 4,4 C 94 % 1017,6 hPa 0,0 l/m 0,00 h 0,00 h 0 W/m 10,9 km/h (2 Bft) 96,58 %
09.02.2020 04:00 6,1 C 5,6 C 4,8 C 94 % 1017,3 hPa 0,0 l/m 0,00 h 0,00 h 0 W/m 14,2 km/h (3 Bft) 97,96 %
09.02.2020 05:00 6,4 C 6,0 C 5,2 C 93 % 1016,1 hPa 0,0 l/m 0,00 h 0,00 h 0 W/m 20,5 km/h (4 Bft) 98,86 %
09.02.2020 06:00 6,6 C 6,1 C 5,6 C 92 % 1014,7 hPa 0,0 l/m 0,00 h 0,00 h 0 W/m 21,7 km/h (4 Bft) 95,02 %
09.02.2020 07:00 6,8 C 6,1 C 5,6 C 92 % 1013,5 hPa 0,0 l/m 0,00 h 0,00 h 0 W/m 19,2 km/h (3 Bft) 98,79 %
09.02.2020 08:00 7,3 C 7,3 C 6,5 C 92 % 1012,2 hPa 0,0 l/m 0,30 h 0,00 h 33 W/m 18,9 km/h (3 Bft) 96,46 %
09.02.2020 09:00 9,7 C 10,0 C 9,0 C 82 % 1011,5 hPa 0,0 l/m 0,27 h 0,00 h 83 W/m 33,9 km/h (5 Bft) 96,37 %
09.02.2020 10:00 10,6 C 11,0 C 9,8 C 71 % 1010,0 hPa 0,0 l/m 0,83 h 0,00 h 186 W/m 43,9 km/h (6 Bft) 98,43 %
09.02.2020 11:00 11,2 C 11,2 C 10,5 C 65 % 1008,6 hPa 0,0 l/m 0,13 h 0,00 h 115 W/m 41,3 km/h (6 Bft) 97,51 %
09.02.2020 12:00 11,9 C 11,7 C 11,0 C 62 % 1007,1 hPa 0,0 l/m 0,00 h 0,00 h 124 W/m 43,9 km/h (6 Bft) 96,72 %
09.02.2020 13:00 12,4 C 12,2 C 11,7 C 64 % 1004,8 hPa 0,0 l/m 0,00 h 0,00 h 154 W/m 51,1 km/h (7 Bft) 96,94 %
09.02.2020 14:00 12,7 C 12,2 C 11,7 C 67 % 1002,6 hPa 0,0 l/m 0,00 h 0,00 h 108 W/m 54,1 km/h (7 Bft) 99,29 %
09.02.2020 15:00 12,8 C 12,2 C 11,7 C 71 % 1001,0 hPa 0,0 l/m 0,00 h 0,00 h 27 W/m 47,0 km/h (6 Bft) 97,58 %
09.02.2020 16:00 13,0 C 12,4 C 11,9 C 74 % 999,1 hPa 0,0 l/m 0,00 h 0,00 h 10 W/m 47,5 km/h (6 Bft) 96,02 %
09.02.2020 17:00 13,5 C 12,8 C 12,2 C 75 % 997,0 hPa 0,0 l/m 0,00 h 0,00 h 2 W/m 56,7 km/h (7 Bft) 99,72 %
09.02.2020 18:00 13,5 C 12,5 C 11,7 C 78 % 995,5 hPa 0,0 l/m 0,00 h 0,33 h 0 W/m 56,9 km/h (7 Bft) 97,36 %
09.02.2020 19:00 13,1 C 11,5 C 10,9 C 82 % 994,5 hPa 0,2 l/m 0,00 h 0,67 h 0 W/m 64,2 km/h (8 Bft) 96,23 %
09.02.2020 20:00 12,3 C 10,0 C 9,6 C 87 % 993,5 hPa 0,4 l/m 0,00 h 1,00 h 0 W/m 62,4 km/h (8 Bft) 98,65 %
09.02.2020 21:00 12,7 C 11,8 C 10,8 C 85 % 991,7 hPa 0,0 l/m 0,00 h 0,33 h 0 W/m 65,4 km/h (8 Bft) 97,08 %
09.02.2020 22:00 12,5 C 10,4 C 9,9 C 88 % 989,7 hPa 1,0 l/m 0,00 h 0,97 h 0 W/m 65,8 km/h (8 Bft) 98,22 %
09.02.2020 23:00 11,8 C 9,8 C 9,4 C 92 % 989,5 hPa 1,4 l/m 0,00 h 0,83 h 0 W/m 44,8 km/h (6 Bft) 97,72 %
Min-Datum _ 07.02.20 07.02.20 07.02.20 09.02.20 09.02.20 - - - - 03.02.20 08.02.20
_ Min-Zeit 06:08 05:58 05:58 12:18 23:44 - - - - 16:52 08:54
Minimum _ 0,1 C -1,7 C -2,2 C 61 % 989,0 hPa - - - - 0,0 km/h (0 Bft) 45,71 %
Max-Datum _ 09.02.20 05.02.20 09.02.20 05.02.20 05.02.20 03.02.20 03.02.20 04.02.20 05.02.20 09.02.20 03.02.20
_ Max-Zeit 18:14 12:52 16:42 09:54 12:06 23:00 10:02 00:08 12:44 20:34 00:58
Maximum _ 13,7 C 16,1 C 12,2 C 100 % 1037,7 hPa 2,2 l/m 0,03 h 0,07 h 556 W/m 96,6 km/h
S (10 Bft)
100,00 %
Durchschnitt _ 6,0 C 5,7 C 4,6 C 88 % 1021,1 hPa #14,4 l/m #17:48 h #17:06 h 119 W/m 15,4 km/h (3 Bft) 97,31 %
© 2020 W. Hausmann